Time;durP1;ratioP1;P1;durP2;ratioP2;P2;SDS_P1;SDS_P2;PMS_P1;PMS_P2;Temp;Humidity;BMP_temperature;BMP_pressure;BME280_temperature;BME280_humidity;BME280_pressure;Samples;Min_cycle;Max_cycle;Signal;HPM_P1;HPM_P2
2022/04/24 00:00:50;;;;;;;26.60;20.30;;;;;7.40;92228.00;;;;7388149;19;20165;-75
2022/04/24 00:03:18;;;;;;;25.30;19.87;;;;;7.40;92225.00;;;;7392197;19;20125;-75
2022/04/24 00:05:55;;;;;;;25.80;19.83;;;;;7.50;92216.00;;;;7390392;19;20133;-75
2022/04/24 00:08:22;;;;;;;26.70;20.43;;;;;7.70;92207.00;;;;7389427;19;20584;-76
2022/04/24 00:10:50;;;;;;;24.80;19.13;;;;;7.70;92201.00;;;;7388283;19;20137;-77
2022/04/24 00:13:24;;;;;;;29.20;20.63;;;;;7.80;92206.00;;;;7391710;19;20671;-76
2022/04/24 00:15:52;;;;;;;25.33;18.50;;;;;7.70;92198.00;;;;7391012;19;20671;-75
2022/04/24 00:18:19;;;;;;;23.77;19.73;;;;;7.80;92194.00;;;;7398643;19;20152;-76
2022/04/24 00:20:53;;;;;;;25.57;19.70;;;;;7.60;92192.00;;;;7399700;19;20163;-76
2022/04/24 00:23:20;;;;;;;24.10;19.67;;;;;7.40;92196.00;;;;7397335;19;20121;-76
2022/04/24 00:25:48;;;;;;;23.70;19.63;;;;;7.50;92181.00;;;;7396552;19;20149;-76
2022/04/24 00:28:22;;;;;;;24.13;19.00;;;;;7.50;92178.00;;;;7396700;19;20142;-77
2022/04/24 00:30:49;;;;;;;23.73;19.47;;;;;7.50;92185.00;;;;7397725;19;20545;-75
2022/04/24 00:33:17;;;;;;;24.07;19.60;;;;;7.50;92175.00;;;;7396913;19;20175;-74
2022/04/24 00:35:58;;;;;;;24.90;19.73;;;;;7.60;92182.00;;;;7396114;19;20600;-74
2022/04/24 00:38:25;;;;;;;22.23;19.17;;;;;7.70;92171.00;;;;7396429;19;20144;-74
2022/04/24 00:40:59;;;;;;;23.43;19.10;;;;;7.80;92164.00;;;;7395974;19;20512;-74
2022/04/24 00:43:26;;;;;;;25.40;19.67;;;;;7.80;92171.00;;;;7395720;19;20133;-74
2022/04/24 00:46:20;;;;;;;24.23;19.20;;;;;7.70;92172.00;;;;7396179;19;20151;-76
2022/04/24 00:48:55;;;;;;;24.30;19.17;;;;;8.00;92169.00;;;;7399092;19;20153;-76
2022/04/24 00:51:23;;;;;;;22.43;18.40;;;;;7.90;92173.00;;;;7396442;19;20588;-73
2022/04/24 00:53:51;;;;;;;22.27;18.27;;;;;7.80;92170.00;;;;7396096;19;20152;-73
2022/04/24 00:56:30;;;;;;;22.70;18.90;;;;;7.90;92165.00;;;;7395422;19;20757;-73
2022/04/24 00:59:01;;;;;;;25.00;19.30;;;;;7.90;92174.00;;;;7395339;19;20619;-74
2022/04/24 01:01:36;;;;;;;21.23;17.53;;;;;7.90;92178.00;;;;7394468;19;20144;-74
2022/04/24 01:04:05;;;;;;;20.57;17.90;;;;;7.90;92173.00;;;;7399678;19;20156;-73
2022/04/24 01:06:42;;;;;;;22.63;18.57;;;;;8.00;92171.00;;;;7394897;19;20623;-75
2022/04/24 01:09:21;;;;;;;20.57;18.20;;;;;8.00;92164.00;;;;7394656;19;20175;-74
2022/04/24 01:11:50;;;;;;;23.87;18.83;;;;;7.90;92167.00;;;;7399617;19;20194;-74
2022/04/24 01:14:28;;;;;;;23.57;18.33;;;;;7.90;92153.00;;;;7395965;19;20137;-74
2022/04/24 01:16:56;;;;;;;25.23;18.37;;;;;7.80;92157.00;;;;7396929;19;20129;-74
2022/04/24 01:19:25;;;;;;;20.70;17.43;;;;;7.90;92148.00;;;;7396427;19;20138;-76
2022/04/24 01:21:59;;;;;;;23.77;18.93;;;;;7.70;92149.00;;;;7394001;19;20135;-75
2022/04/24 01:24:29;;;;;;;21.60;18.53;;;;;7.60;92140.00;;;;7398830;19;20156;-74
2022/04/24 01:26:57;;;;;;;20.33;17.87;;;;;7.90;92141.00;;;;7394552;19;20129;-76
2022/04/24 01:29:31;;;;;;;20.93;18.43;;;;;7.60;92141.00;;;;7393815;19;20131;-74
2022/04/24 01:31:59;;;;;;;24.67;18.93;;;;;7.50;92137.00;;;;7395613;19;20137;-74
2022/04/24 01:34:26;;;;;;;24.67;19.10;;;;;7.50;92148.00;;;;7392616;19;20175;-74
2022/04/24 01:37:02;;;;;;;23.43;19.13;;;;;7.50;92164.00;;;;7391922;19;20136;-74
2022/04/24 01:39:29;;;;;;;21.67;17.73;;;;;7.60;92169.00;;;;7391588;19;20144;-74
2022/04/24 01:41:57;;;;;;;24.43;19.13;;;;;7.50;92182.00;;;;7393251;19;20599;-74
2022/04/24 01:44:31;;;;;;;22.13;17.70;;;;;7.50;92190.00;;;;7394400;19;20132;-74
2022/04/24 01:46:59;;;;;;;22.10;18.27;;;;;7.50;92191.00;;;;7394216;19;20124;-75
2022/04/24 01:49:27;;;;;;;21.43;17.73;;;;;7.50;92187.00;;;;7398958;19;20775;-73
2022/04/24 01:52:01;;;;;;;21.80;17.10;;;;;7.50;92189.00;;;;7394099;19;20212;-74
2022/04/24 01:54:29;;;;;;;20.93;17.43;;;;;7.60;92187.00;;;;7394910;19;20133;-74
2022/04/24 01:56:57;;;;;;;22.00;18.10;;;;;7.60;92205.00;;;;7394804;19;20149;-75
2022/04/24 01:59:31;;;;;;;22.23;18.57;;;;;7.50;92221.00;;;;7397201;19;20614;-74
2022/04/24 02:01:58;;;;;;;21.87;18.67;;;;;7.50;92226.00;;;;7392644;19;20131;-74
2022/04/24 02:04:26;;;;;;;22.43;19.20;;;;;7.60;92246.00;;;;7393649;19;20606;-74
2022/04/24 02:07:00;;;;;;;21.97;18.70;;;;;7.70;92258.00;;;;7398626;19;20139;-74
2022/04/24 02:09:28;;;;;;;22.70;18.27;;;;;7.70;92265.00;;;;7394105;19;20137;-74
2022/04/24 02:11:55;;;;;;;24.73;19.37;;;;;7.90;92256.00;;;;7393285;19;20153;-75
2022/04/24 02:14:29;;;;;;;23.07;18.93;;;;;7.70;92251.00;;;;7394089;19;20475;-74
2022/04/24 02:16:57;;;;;;;23.97;18.43;;;;;7.70;92268.00;;;;7393497;19;20757;-73
2022/04/24 02:19:31;;;;;;;24.70;18.43;;;;;7.40;92260.00;;;;7392423;19;20478;-75
2022/04/24 02:22:05;;;;;;;24.97;20.10;;;;;7.40;92266.00;;;;7392111;19;20468;-76
2022/04/24 02:24:33;;;;;;;25.03;20.00;;;;;7.30;92257.00;;;;7394109;19;20208;-75
2022/04/24 02:27:00;;;;;;;28.40;20.10;;;;;7.20;92268.00;;;;7394457;19;20121;-77
2022/04/24 02:29:35;;;;;;;26.23;20.80;;;;;7.10;92268.00;;;;7396003;19;20616;-77
2022/04/24 02:32:03;;;;;;;26.73;21.43;;;;;7.10;92275.00;;;;7402627;19;20600;-79
2022/04/24 02:34:30;;;;;;;30.53;21.67;;;;;7.10;92270.00;;;;7397966;19;20164;-77
2022/04/24 02:37:07;;;;;;;28.90;22.20;;;;;7.00;92271.00;;;;7395875;19;20147;-78
2022/04/24 02:39:35;;;;;;;32.77;23.30;;;;;7.00;92265.00;;;;7394392;19;20616;-78
2022/04/24 02:42:04;;;;;;;27.83;22.03;;;;;7.00;92262.00;;;;7397368;19;20572;-78
2022/04/24 02:44:38;;;;;;;31.47;22.70;;;;;6.90;92252.00;;;;7393353;19;20140;-79
2022/04/24 02:47:06;;;;;;;31.37;22.30;;;;;7.00;92249.00;;;;7401537;19;20200;-79
2022/04/24 02:49:34;;;;;;;33.47;23.23;;;;;7.00;92243.00;;;;7404787;19;20133;-79
2022/04/24 02:52:08;;;;;;;33.23;22.83;;;;;6.90;92245.00;;;;7401437;19;20157;-77
2022/04/24 02:54:36;;;;;;;36.90;24.33;;;;;7.00;92234.00;;;;7397835;19;20137;-78
2022/04/24 02:57:05;;;;;;;36.70;24.23;;;;;7.00;92234.00;;;;7397736;19;20452;-78
2022/04/24 02:59:42;;;;;;;30.83;22.80;;;;;6.90;92224.00;;;;7397264;19;20136;-77
2022/04/24 03:02:10;;;;;;;38.07;24.70;;;;;6.90;92224.00;;;;7396691;19;20166;-79
2022/04/24 03:04:39;;;;;;;33.70;24.27;;;;;6.90;92219.00;;;;7396525;19;20144;-77
2022/04/24 03:07:13;;;;;;;34.33;25.40;;;;;7.00;92214.00;;;;7394830;19;20141;-78
2022/04/24 03:09:41;;;;;;;37.10;26.10;;;;;7.10;92204.00;;;;7397093;19;20619;-78
2022/04/24 03:12:09;;;;;;;38.43;26.87;;;;;7.10;92213.00;;;;7394008;19;20139;-78
2022/04/24 03:14:43;;;;;;;38.77;26.10;;;;;7.10;92203.00;;;;7393983;19;20128;-78
2022/04/24 03:17:10;;;;;;;39.33;27.27;;;;;7.10;92207.00;;;;7394793;19;20129;-78
2022/04/24 03:19:38;;;;;;;42.60;27.93;;;;;7.20;92213.00;;;;7396835;19;20153;-79
2022/04/24 03:22:12;;;;;;;40.47;26.63;;;;;7.10;92205.00;;;;7396120;19;20517;-79
2022/04/24 03:24:39;;;;;;;42.17;28.90;;;;;7.20;92207.00;;;;7415222;19;20149;-79
2022/04/24 03:27:07;;;;;;;48.40;29.73;;;;;7.20;92200.00;;;;7407586;19;20734;-80
2022/04/24 03:29:42;;;;;;;49.03;30.53;;;;;7.20;92195.00;;;;7407991;19;20148;-79
2022/04/24 03:32:10;;;;;;;43.80;29.17;;;;;7.10;92197.00;;;;7404472;19;20157;-80
2022/04/24 03:34:38;;;;;;;44.00;29.37;;;;;7.10;92208.00;;;;7405344;19;20522;-79
2022/04/24 03:37:12;;;;;;;43.57;28.80;;;;;7.20;92213.00;;;;7407310;19;20129;-78
2022/04/24 03:39:40;;;;;;;43.80;26.77;;;;;7.10;92212.00;;;;7406299;19;20145;-79
2022/04/24 03:42:07;;;;;;;46.00;28.73;;;;;7.10;92220.00;;;;7398313;19;20153;-79
2022/04/24 03:44:42;;;;;;;45.57;28.13;;;;;7.10;92229.00;;;;7396132;19;20128;-79
2022/04/24 03:47:10;;;;;;;46.33;29.10;;;;;7.10;92233.00;;;;7400926;19;20144;-79
2022/04/24 03:49:37;;;;;;;50.87;28.87;;;;;7.10;92227.00;;;;7397544;19;20599;-79
2022/04/24 03:52:11;;;;;;;64.30;29.90;;;;;7.20;92235.00;;;;7400401;19;20493;-79
2022/04/24 03:54:39;;;;;;;51.67;26.70;;;;;7.20;92237.00;;;;7411016;19;20623;-79
2022/04/24 03:57:08;;;;;;;53.50;29.13;;;;;7.20;92230.00;;;;7405788;19;20137;-79
2022/04/24 03:59:42;;;;;;;49.30;29.50;;;;;7.20;92231.00;;;;7405508;19;20136;-80
2022/04/24 04:02:09;;;;;;;46.17;27.63;;;;;7.20;92237.00;;;;7406578;19;20171;-79
2022/04/24 04:04:37;;;;;;;47.43;28.50;;;;;7.30;92243.00;;;;7407679;19;20152;-79
2022/04/24 04:07:16;;;;;;;48.53;27.43;;;;;7.30;92237.00;;;;7412208;19;20131;-80
2022/04/24 04:09:43;;;;;;;49.47;29.17;;;;;7.20;92243.00;;;;7404327;19;20240;-78
2022/04/24 04:12:11;;;;;;;50.83;28.70;;;;;7.20;92252.00;;;;7414635;19;20125;-79
2022/04/24 04:14:45;;;;;;;49.40;28.27;;;;;7.20;92248.00;;;;7421169;19;20128;-80
2022/04/24 04:17:12;;;;;;;48.93;28.90;;;;;7.20;92259.00;;;;7418127;19;20165;-80
2022/04/24 04:19:40;;;;;;;48.87;28.40;;;;;7.10;92254.00;;;;7419350;19;20137;-78
2022/04/24 04:22:14;;;;;;;44.80;25.77;;;;;7.20;92254.00;;;;7412910;19;20121;-78
2022/04/24 04:24:44;;;;;;;52.97;29.30;;;;;7.20;92265.00;;;;7412883;19;20173;-80
2022/04/24 04:27:12;;;;;;;69.33;30.13;;;;;7.20;92261.00;;;;7413192;19;20612;-78
2022/04/24 04:29:49;;;;;;;77.37;31.37;;;;;7.30;92265.00;;;;7423741;19;20877;-77
2022/04/24 04:42:47;;;;;;;28.45;19.20;;;;;7.20;92264.00;;;;7333221;19;20145;31
2022/04/24 04:45:33;;;;;;;17.60;11.03;;;;;7.10;92265.00;;;;7422713;19;20140;-80
2022/04/24 04:48:34;;;;;;;14.37;8.27;;;;;7.00;92288.00;;;;7405661;19;20196;-80
2022/04/24 04:51:36;;;;;;;14.93;8.80;;;;;6.90;92288.00;;;;7374875;19;20184;-84
2022/04/24 04:56:55;;;;;;;7.67;4.07;;;;;6.70;92296.00;;;;7356643;19;20220;-79
2022/04/24 05:09:58;;;;;;;2.93;1.60;;;;;5.90;92308.00;;;;7382721;19;20625;-80
2022/04/24 05:12:35;;;;;;;1.70;1.40;;;;;5.90;92308.00;;;;7419028;19;20145;-80
2022/04/24 05:15:06;;;;;;;4.23;1.13;;;;;5.80;92308.00;;;;7424265;19;20133;-79
2022/04/24 05:17:48;;;;;;;1.27;0.80;;;;;5.60;92320.00;;;;7425221;19;20144;-79
2022/04/24 05:20:36;;;;;;;1.30;0.80;;;;;5.50;92329.00;;;;7423915;19;20135;-81
2022/04/24 05:23:14;;;;;;;2.07;0.53;;;;;5.40;92335.00;;;;7423917;19;20149;-81
2022/04/24 05:29:22;;;;;;;1.43;0.43;;;;;5.30;92346.00;;;;7410393;19;20180;-80
2022/04/24 05:32:10;;;;;;;0.93;0.60;;;;;5.10;92349.00;;;;7433104;19;20181;-83
2022/04/24 05:38:42;;;;;;;1.13;0.50;;;;;5.10;92352.00;;;;7397596;19;20223;-80
2022/04/24 05:41:55;;;;;;;0.20;0.20;;;;;4.90;92361.00;;;;7413602;19;20192;-82
2022/04/24 05:48:07;;;;;;;1.90;0.40;;;;;4.80;92358.00;;;;7397704;19;20188;-79
2022/04/24 05:50:43;;;;;;;0.40;0.40;;;;;4.90;92356.00;;;;7424950;19;20153;-80
2022/04/24 05:53:13;;;;;;;1.07;0.53;;;;;5.00;92371.00;;;;7425398;19;20160;-81
2022/04/24 05:55:42;;;;;;;1.10;0.50;;;;;4.90;92370.00;;;;7418600;19;20141;-80
2022/04/24 05:58:22;;;;;;;1.90;0.40;;;;;5.00;92371.00;;;;7424434;19;20136;-80
2022/04/24 06:01:02;;;;;;;1.13;0.50;;;;;5.00;92368.00;;;;7422628;19;20179;-81
2022/04/24 06:03:42;;;;;;;2.50;0.30;;;;;4.90;92369.00;;;;7427941;19;20152;-80
2022/04/24 06:06:12;;;;;;;0.97;0.60;;;;;4.90;92367.00;;;;7424255;19;20148;-79
2022/04/24 06:08:48;;;;;;;1.20;0.50;;;;;5.10;92373.00;;;;7421899;19;20577;-81
2022/04/24 06:11:22;;;;;;;0.50;0.40;;;;;4.90;92371.00;;;;7426941;19;20173;-80
2022/04/24 06:14:10;;;;;;;0.90;0.50;;;;;4.90;92383.00;;;;7420589;19;20141;-82
2022/04/24 06:16:49;;;;;;;1.07;0.20;;;;;5.00;92383.00;;;;7423273;19;20162;-80
2022/04/24 06:19:29;;;;;;;0.40;0.30;;;;;5.00;92378.00;;;;7420515;19;20168;-80
2022/04/24 06:22:13;;;;;;;1.30;0.27;;;;;5.10;92383.00;;;;7413812;19;20285;-81
2022/04/24 06:24:55;;;;;;;0.47;0.30;;;;;5.10;92389.00;;;;7416917;19;20173;-82
2022/04/24 06:27:31;;;;;;;0.37;0.30;;;;;5.00;92377.00;;;;7413527;19;20165;-81
2022/04/24 06:30:07;;;;;;;1.67;0.23;;;;;5.20;92393.00;;;;7415420;19;20166;-79
2022/04/24 06:32:39;;;;;;;0.27;0.20;;;;;5.30;92375.00;;;;7409344;19;20181;-80
2022/04/24 06:35:16;;;;;;;1.70;0.37;;;;;5.40;92385.00;;;;7409090;19;20148;-80
2022/04/24 06:37:57;;;;;;;0.70;0.33;;;;;5.30;92375.00;;;;7410989;19;20136;-81
2022/04/24 06:40:32;;;;;;;1.50;0.40;;;;;5.30;92377.00;;;;7409930;19;20144;-79
2022/04/24 06:43:05;;;;;;;1.43;0.40;;;;;5.50;92378.00;;;;7408806;19;20141;-79
2022/04/24 06:45:43;;;;;;;0.23;0.20;;;;;5.50;92372.00;;;;7410309;19;20151;-79
2022/04/24 06:48:25;;;;;;;0.50;0.20;;;;;5.60;92370.00;;;;7408816;19;20575;-81
2022/04/24 06:51:03;;;;;;;0.20;0.20;;;;;5.50;92370.00;;;;7410296;19;20188;-81
2022/04/24 06:53:31;;;;;;;0.10;0.10;;;;;5.50;92376.00;;;;7406051;19;20152;-79
2022/04/24 06:55:59;;;;;;;0.67;0.37;;;;;5.50;92374.00;;;;7408470;19;20168;-81
2022/04/24 06:58:33;;;;;;;0.10;0.10;;;;;5.50;92382.00;;;;7408925;19;20156;-80
2022/04/24 07:01:08;;;;;;;0.30;0.03;;;;;5.40;92383.00;;;;7405252;19;20152;-79
2022/04/24 07:03:44;;;;;;;0.30;0.20;;;;;5.50;92373.00;;;;7407926;19;20499;-78
2022/04/24 07:06:12;;;;;;;0.30;0.10;;;;;5.60;92382.00;;;;7403011;19;20615;-80
2022/04/24 07:08:40;;;;;;;1.00;0.10;;;;;5.60;92383.00;;;;7400297;19;20156;-79
2022/04/24 07:11:14;;;;;;;0.13;0.10;;;;;5.40;92376.00;;;;7400914;19;20522;-79
2022/04/24 07:13:44;;;;;;;0.83;0.30;;;;;5.50;92385.00;;;;7402380;19;20508;-79
2022/04/24 07:16:12;;;;;;;0.63;0.30;;;;;5.60;92391.00;;;;7402306;19;20148;-78
2022/04/24 07:18:46;;;;;;;0.20;0.10;;;;;5.60;92388.00;;;;7400895;19;20156;-81
2022/04/24 07:21:14;;;;;;;0.10;0.10;;;;;5.60;92376.00;;;;7395148;19;20153;-79
2022/04/24 07:23:42;;;;;;;0.10;0.10;;;;;5.60;92383.00;;;;7390566;19;20223;-79
2022/04/24 07:26:16;;;;;;;0.20;0.20;;;;;5.60;92382.00;;;;7397357;19;20147;-80
2022/04/24 07:28:44;;;;;;;0.03;0.03;;;;;5.70;92382.00;;;;7394767;19;20160;-81
2022/04/24 07:31:14;;;;;;;0.20;0.10;;;;;5.70;92390.00;;;;7395682;19;20180;-80
2022/04/24 07:33:49;;;;;;;0.10;0.10;;;;;5.50;92385.00;;;;7394895;19;20144;-80
2022/04/24 07:36:16;;;;;;;0.10;0.10;;;;;5.60;92384.00;;;;7398851;19;20169;-79
2022/04/24 07:38:44;;;;;;;0.30;0.10;;;;;5.70;92385.00;;;;7399737;19;20159;-79
2022/04/24 07:41:18;;;;;;;0.00;0.00;;;;;5.60;92387.00;;;;7399106;19;20149;-79
2022/04/24 07:43:48;;;;;;;0.10;0.10;;;;;5.60;92378.00;;;;7403216;19;20224;-79
2022/04/24 07:46:16;;;;;;;0.00;0.00;;;;;5.50;92378.00;;;;7401768;19;20511;-80
2022/04/24 07:48:57;;;;;;;0.20;0.20;;;;;5.70;92376.00;;;;7400902;19;20236;-79
2022/04/24 07:51:25;;;;;;;0.20;0.20;;;;;5.70;92388.00;;;;7400234;19;20226;-81
2022/04/24 07:53:59;;;;;;;0.10;0.10;;;;;5.70;92385.00;;;;7398798;19;20148;-81
2022/04/24 07:56:27;;;;;;;0.10;0.10;;;;;5.80;92388.00;;;;7398199;19;20153;-79
2022/04/24 07:58:55;;;;;;;0.20;0.10;;;;;5.90;92392.00;;;;7403036;19;20136;-80
2022/04/24 08:01:29;;;;;;;0.17;0.10;;;;;5.80;92391.00;;;;7397981;19;20152;-80
2022/04/24 08:03:57;;;;;;;0.43;0.20;;;;;6.00;92394.00;;;;7394430;19;20220;-80
2022/04/24 08:06:29;;;;;;;0.47;0.20;;;;;6.00;92400.00;;;;7395412;19;20140;-80
2022/04/24 08:09:03;;;;;;;0.13;0.00;;;;;6.00;92405.00;;;;7397609;19;20180;-80
2022/04/24 08:11:31;;;;;;;0.00;0.00;;;;;6.00;92404.00;;;;7395514;19;20156;-80
2022/04/24 08:13:59;;;;;;;0.10;0.10;;;;;6.10;92406.00;;;;7396423;19;20145;-80
2022/04/24 08:16:34;;;;;;;0.10;0.10;;;;;6.20;92409.00;;;;7398392;19;20159;-80
2022/04/24 08:19:01;;;;;;;1.53;0.10;;;;;6.30;92413.00;;;;7399867;19;20170;-81
2022/04/24 08:21:29;;;;;;;0.30;0.30;;;;;6.40;92418.00;;;;7400831;19;20461;-80
2022/04/24 08:24:04;;;;;;;0.10;0.10;;;;;6.20;92419.00;;;;7394713;19;20891;-80
2022/04/24 08:26:32;;;;;;;0.50;0.17;;;;;6.40;92418.00;;;;7397389;19;20256;-79
2022/04/24 08:29:00;;;;;;;0.20;0.13;;;;;6.40;92408.00;;;;7398575;19;20631;-79
2022/04/24 08:31:34;;;;;;;0.10;0.10;;;;;6.40;92413.00;;;;7397488;19;20141;-79
2022/04/24 08:34:02;;;;;;;0.10;0.10;;;;;6.40;92421.00;;;;7398922;19;20133;-79
2022/04/24 08:36:31;;;;;;;0.33;0.30;;;;;6.60;92411.00;;;;7397634;19;20143;-79
2022/04/24 08:39:05;;;;;;;0.77;0.20;;;;;6.50;92419.00;;;;7404597;19;20150;-80
2022/04/24 08:41:36;;;;;;;0.10;0.10;;;;;6.70;92419.00;;;;7405616;19;20156;-79
2022/04/24 08:44:12;;;;;;;0.17;0.10;;;;;6.60;92413.00;;;;7403383;19;20152;-79
2022/04/24 08:46:47;;;;;;;0.23;0.20;;;;;6.60;92413.00;;;;7404940;19;20148;-79
2022/04/24 08:49:23;;;;;;;0.57;0.37;;;;;6.60;92420.00;;;;7401278;19;20169;-79
2022/04/24 08:52:00;;;;;;;0.40;0.30;;;;;6.90;92416.00;;;;7407768;19;20152;-80
2022/04/24 08:54:29;;;;;;;0.10;0.10;;;;;6.80;92420.00;;;;7406809;19;20141;-80
2022/04/24 08:56:58;;;;;;;0.60;0.20;;;;;6.90;92424.00;;;;7405666;19;20153;-79
2022/04/24 08:59:33;;;;;;;0.50;0.50;;;;;6.90;92428.00;;;;7405200;19;20155;-80
2022/04/24 09:02:01;;;;;;;0.20;0.20;;;;;7.00;92433.00;;;;7405659;19;20148;-79
2022/04/24 09:04:35;;;;;;;0.20;0.20;;;;;6.90;92436.00;;;;7403600;19;20140;-81
2022/04/24 09:07:17;;;;;;;0.70;0.27;;;;;7.10;92435.00;;;;7403556;19;20132;-77
2022/04/24 09:09:50;;;;;;;1.20;0.33;;;;;7.10;92428.00;;;;7404459;19;20170;-80
2022/04/24 09:12:31;;;;;;;0.20;0.20;;;;;7.20;92442.00;;;;7406263;19;20144;-78
2022/04/24 09:14:59;;;;;;;1.70;0.27;;;;;7.20;92442.00;;;;7404816;19;20144;-77
2022/04/24 09:17:35;;;;;;;0.17;0.17;;;;;7.00;92442.00;;;;7404276;19;20155;-78
2022/04/24 09:20:19;;;;;;;0.10;0.10;;;;;7.10;92431.00;;;;7403079;19;20140;-79
2022/04/24 09:23:03;;;;;;;1.07;0.40;;;;;7.20;92440.00;;;;7405846;19;20151;-78
2022/04/24 09:25:41;;;;;;;0.40;0.40;;;;;7.30;92445.00;;;;7402451;19;20129;-78
2022/04/24 09:28:19;;;;;;;0.30;0.30;;;;;7.50;92435.00;;;;7402712;19;20478;-79
2022/04/24 09:30:50;;;;;;;0.40;0.40;;;;;7.50;92437.00;;;;7406080;19;20172;-79
2022/04/24 09:33:38;;;;;;;0.30;0.30;;;;;7.20;92444.00;;;;7402698;19;20187;-77
2022/04/24 09:36:07;;;;;;;0.57;0.33;;;;;7.40;92451.00;;;;7400410;19;20597;-79
2022/04/24 09:38:45;;;;;;;0.47;0.40;;;;;7.20;92441.00;;;;7399902;19;20153;-78
2022/04/24 09:41:27;;;;;;;0.33;0.27;;;;;7.30;92441.00;;;;7403912;19;20144;-78
2022/04/24 09:44:12;;;;;;;0.30;0.30;;;;;7.40;92450.00;;;;7397163;19;20136;-78
2022/04/24 09:46:41;;;;;;;0.60;0.60;;;;;7.10;92443.00;;;;7397878;19;20407;-77
2022/04/24 09:49:29;;;;;;;0.20;0.20;;;;;7.00;92454.00;;;;7401702;19;20171;-77
2022/04/24 09:52:15;;;;;;;0.40;0.20;;;;;7.00;92462.00;;;;7403622;19;20160;-77
2022/04/24 09:54:55;;;;;;;0.23;0.20;;;;;7.20;92451.00;;;;7401806;19;20161;-77
2022/04/24 09:57:24;;;;;;;0.10;0.10;;;;;7.00;92462.00;;;;7411674;19;20184;-79
2022/04/24 10:00:04;;;;;;;0.20;0.20;;;;;6.90;92468.00;;;;7415597;19;20539;-77
2022/04/24 10:02:33;;;;;;;0.33;0.13;;;;;6.90;92461.00;;;;7419993;19;20599;-78
2022/04/24 10:05:10;;;;;;;0.30;0.30;;;;;7.00;92469.00;;;;7410097;19;20152;-77
2022/04/24 10:07:39;;;;;;;0.20;0.20;;;;;7.20;92470.00;;;;7403848;19;20524;-78
2022/04/24 10:10:12;;;;;;;0.63;0.10;;;;;7.30;92473.00;;;;7399722;19;20546;-78
2022/04/24 10:12:50;;;;;;;0.60;0.40;;;;;7.50;92476.00;;;;7401287;19;20149;-78
2022/04/24 10:16:18;;;;;;;0.20;0.10;;;;;7.40;92482.00;;;;7405147;19;20152;-77
2022/04/24 10:19:30;;;;;;;0.30;0.20;;;;;7.20;92486.00;;;;7409387;19;20143;-78
2022/04/24 10:22:45;;;;;;;0.10;0.10;;;;;7.10;92489.00;;;;7406444;19;20231;-79
2022/04/24 10:25:34;;;;;;;0.50;0.30;;;;;7.30;92504.00;;;;7399033;19;20642;-77
2022/04/24 10:28:13;;;;;;;0.60;0.40;;;;;7.20;92499.00;;;;7401306;19;20129;-76
2022/04/24 10:31:01;;;;;;;0.40;0.30;;;;;7.10;92501.00;;;;7398682;19;20158;-76
2022/04/24 10:33:34;;;;;;;2.30;1.27;;;;;7.30;92510.00;;;;7397634;19;20639;-77
2022/04/24 10:36:12;;;;;;;0.80;0.77;;;;;7.30;92507.00;;;;7400432;19;20180;-76
2022/04/24 10:38:57;;;;;;;2.03;1.00;;;;;7.40;92505.00;;;;7399250;19;20610;-77
2022/04/24 10:41:57;;;;;;;0.10;0.10;;;;;7.40;92513.00;;;;7396796;19;20140;-77
2022/04/24 10:44:27;;;;;;;0.17;0.10;;;;;7.30;92512.00;;;;7397982;19;20149;-75
2022/04/24 10:47:24;;;;;;;0.17;0.13;;;;;7.60;92513.00;;;;7401858;19;20132;-76
2022/04/24 10:50:06;;;;;;;0.43;0.30;;;;;7.50;92517.00;;;;7400816;19;20161;-79
2022/04/24 10:52:43;;;;;;;0.90;0.20;;;;;7.70;92503.00;;;;7401805;19;20169;-77
2022/04/24 10:55:18;;;;;;;0.10;0.10;;;;;7.80;92519.00;;;;7401487;19;20501;-76
2022/04/24 10:57:57;;;;;;;0.10;0.10;;;;;7.50;92516.00;;;;7401225;19;20611;-76
2022/04/24 11:00:34;;;;;;;0.20;0.17;;;;;7.70;92513.00;;;;7400478;19;20176;-78
2022/04/24 11:03:14;;;;;;;0.60;0.20;;;;;7.70;92518.00;;;;7398330;19;20190;-77
2022/04/24 11:05:47;;;;;;;0.20;0.20;;;;;7.70;92507.00;;;;7393572;19;20132;-78
2022/04/24 11:08:23;;;;;;;0.30;0.30;;;;;7.60;92511.00;;;;7393156;19;20208;-76
2022/04/24 11:10:51;;;;;;;0.10;0.10;;;;;7.70;92518.00;;;;7392084;19;21157;-76
2022/04/24 11:13:21;;;;;;;1.20;0.20;;;;;7.80;92522.00;;;;7392027;19;20172;-76
2022/04/24 11:15:56;;;;;;;0.10;0.10;;;;;7.80;92520.00;;;;7389294;19;20136;-77
2022/04/24 11:18:36;;;;;;;0.93;0.13;;;;;7.80;92528.00;;;;7399047;19;20165;-76
2022/04/24 11:21:16;;;;;;;0.10;0.10;;;;;7.70;92530.00;;;;7398437;19;20159;-78
2022/04/24 11:23:44;;;;;;;0.10;0.10;;;;;7.90;92536.00;;;;7393947;19;20149;-78
2022/04/24 11:26:23;;;;;;;0.23;0.20;;;;;7.80;92533.00;;;;7398315;19;20606;-77
2022/04/24 11:28:51;;;;;;;0.77;0.30;;;;;7.90;92532.00;;;;7394038;19;20132;-77
2022/04/24 11:31:26;;;;;;;0.10;0.10;;;;;7.80;92538.00;;;;7394701;19;20140;-76
2022/04/24 11:33:59;;;;;;;0.20;0.20;;;;;7.80;92543.00;;;;7393751;19;20136;-76
2022/04/24 11:36:35;;;;;;;0.10;0.10;;;;;7.80;92544.00;;;;7395100;19;20534;-76
2022/04/24 11:39:07;;;;;;;0.00;0.00;;;;;7.80;92545.00;;;;7395000;19;20149;-76
2022/04/24 11:41:46;;;;;;;0.83;0.17;;;;;8.00;92537.00;;;;7394457;19;20593;-78
2022/04/24 11:50:35;;;;;;;0.10;0.10;;;;;8.10;92546.00;;;;7389568;19;21048;-76
2022/04/24 11:53:30;;;;;;;0.03;0.03;;;;;7.80;92551.00;;;;7395360;19;20216;-77
2022/04/24 11:56:03;;;;;;;1.40;0.20;;;;;8.10;92550.00;;;;7391068;19;20162;-79
2022/04/24 11:58:40;;;;;;;0.63;0.10;;;;;7.90;92557.00;;;;7389761;19;20215;-78
2022/04/24 12:01:13;;;;;;;0.10;0.10;;;;;7.80;92556.00;;;;7386711;19;20200;-76
2022/04/24 12:03:48;;;;;;;1.13;0.20;;;;;7.80;92568.00;;;;7386890;19;20906;-77
2022/04/24 12:06:16;;;;;;;0.40;0.30;;;;;7.80;92562.00;;;;7386485;19;20575;-77
2022/04/24 12:08:52;;;;;;;6.70;0.80;;;;;7.60;92563.00;;;;7393057;19;20149;-78
2022/04/24 12:11:29;;;;;;;2.53;0.33;;;;;7.60;92561.00;;;;7395439;19;20494;-77
2022/04/24 12:14:11;;;;;;;0.20;0.20;;;;;7.70;92570.00;;;;7397340;19;20132;-78
2022/04/24 12:16:56;;;;;;;0.47;0.30;;;;;7.80;92579.00;;;;7395677;19;20182;-77
2022/04/24 12:19:34;;;;;;;0.10;0.10;;;;;7.60;92577.00;;;;7397231;19;20160;-76
2022/04/24 12:22:16;;;;;;;0.10;0.10;;;;;7.40;92585.00;;;;7398006;19;20156;-74
2022/04/24 12:24:46;;;;;;;0.20;0.20;;;;;7.50;92583.00;;;;7396966;19;20619;-76
2022/04/24 12:27:21;;;;;;;1.10;0.40;;;;;7.40;92583.00;;;;7400639;19;20137;-76
2022/04/24 12:29:50;;;;;;;0.40;0.40;;;;;7.40;92579.00;;;;7398977;19;20224;-76
2022/04/24 12:32:21;;;;;;;0.20;0.20;;;;;7.50;92585.00;;;;7398585;19;20808;-77
2022/04/24 12:34:56;;;;;;;0.23;0.23;;;;;7.40;92590.00;;;;7400137;19;20154;-76
2022/04/24 12:37:30;;;;;;;1.47;0.20;;;;;7.40;92591.00;;;;7400738;19;20730;-76
2022/04/24 12:40:05;;;;;;;0.20;0.10;;;;;7.30;92587.00;;;;7398304;19;20973;-75
2022/04/24 12:42:33;;;;;;;0.27;0.27;;;;;7.40;92593.00;;;;7399672;19;20137;-73
2022/04/24 12:45:04;;;;;;;0.20;0.20;;;;;7.60;92588.00;;;;7396264;19;20157;-76
2022/04/24 12:47:56;;;;;;;0.77;0.20;;;;;7.60;92581.00;;;;7398361;19;20148;-76
2022/04/24 12:50:31;;;;;;;0.83;0.30;;;;;7.60;92590.00;;;;7400392;19;20210;-76
2022/04/24 12:53:06;;;;;;;1.77;0.30;;;;;7.60;92581.00;;;;7401161;19;20148;-77
2022/04/24 12:55:34;;;;;;;3.10;0.43;;;;;7.40;92587.00;;;;7399504;19;20151;-77
2022/04/24 12:58:02;;;;;;;0.57;0.23;;;;;7.40;92586.00;;;;7397671;19;20164;-76
2022/04/24 13:00:45;;;;;;;0.40;0.40;;;;;7.60;92583.00;;;;7400869;19;20132;-76
2022/04/24 13:03:14;;;;;;;0.87;0.50;;;;;7.70;92587.00;;;;7398686;19;20232;-78
2022/04/24 13:05:51;;;;;;;0.37;0.20;;;;;7.70;92576.00;;;;7402540;19;20572;-77
2022/04/24 13:08:25;;;;;;;0.40;0.40;;;;;7.70;92582.00;;;;7399243;19;20165;-77
2022/04/24 13:11:00;;;;;;;0.40;0.20;;;;;7.60;92579.00;;;;7398242;19;20192;-78
2022/04/24 13:13:29;;;;;;;0.87;0.60;;;;;7.60;92571.00;;;;7399635;19;20143;-78
2022/04/24 13:18:50;;;;;;;1.30;0.60;;;;;7.70;92577.00;;;;7395694;19;20234;-76
2022/04/24 13:21:27;;;;;;;0.37;0.30;;;;;7.70;92578.00;;;;7397599;19;20173;-75
2022/04/24 13:24:22;;;;;;;0.43;0.43;;;;;7.60;92588.00;;;;7390998;19;20166;-75
2022/04/24 13:26:57;;;;;;;0.43;0.43;;;;;7.50;92582.00;;;;7395703;19;20176;-76
2022/04/24 13:29:40;;;;;;;0.50;0.50;;;;;7.70;92573.00;;;;7396419;19;20152;-77
2022/04/24 13:32:25;;;;;;;0.80;0.40;;;;;7.70;92578.00;;;;7395990;19;20313;-77
2022/04/24 13:35:17;;;;;;;1.60;0.60;;;;;7.80;92581.00;;;;7394338;19;20156;-78
2022/04/24 13:38:20;;;;;;;0.50;0.50;;;;;7.60;92586.00;;;;7391425;19;20545;-77
2022/04/24 13:41:02;;;;;;;7.90;3.00;;;;;7.50;92596.00;;;;7395619;19;20240;-76